sensor_id;sensor_type;location;lat;lon;timestamp;temperature;humidity
65072;DHT22;51663;52.310;17.016;2023-04-15T00:00:29;29.50;30.40
65072;DHT22;51663;52.310;17.016;2023-04-15T00:04:32;29.60;30.00
65072;DHT22;51663;52.310;17.016;2023-04-15T00:08:08;29.30;30.20
65072;DHT22;51663;52.310;17.016;2023-04-15T00:11:57;29.30;30.40
65072;DHT22;51663;52.310;17.016;2023-04-15T00:15:22;28.10;32.20
65072;DHT22;51663;52.310;17.016;2023-04-15T00:18:24;28.10;32.30
65072;DHT22;51663;52.310;17.016;2023-04-15T00:21:27;28.10;32.30
65072;DHT22;51663;52.310;17.016;2023-04-15T00:24:46;28.60;31.60
65072;DHT22;51663;52.310;17.016;2023-04-15T00:28:38;28.00;32.20
65072;DHT22;51663;52.310;17.016;2023-04-15T00:35:47;27.70;32.50
65072;DHT22;51663;52.310;17.016;2023-04-15T00:39:59;28.90;31.40
65072;DHT22;51663;52.310;17.016;2023-04-15T00:43:10;29.10;30.90
65072;DHT22;51663;52.310;17.016;2023-04-15T00:46:37;29.00;30.70
65072;DHT22;51663;52.310;17.016;2023-04-15T00:53:23;28.50;31.30
65072;DHT22;51663;52.310;17.016;2023-04-15T00:56:46;28.50;31.50
65072;DHT22;51663;52.310;17.016;2023-04-15T01:00:47;28.30;31.20
65072;DHT22;51663;52.310;17.016;2023-04-15T01:05:29;28.90;30.90
65072;DHT22;51663;52.310;17.016;2023-04-15T01:09:02;28.40;31.30
65072;DHT22;51663;52.310;17.016;2023-04-15T01:12:28;28.30;31.70
65072;DHT22;51663;52.310;17.016;2023-04-15T01:16:40;28.70;30.80
65072;DHT22;51663;52.310;17.016;2023-04-15T01:20:45;29.40;30.20
65072;DHT22;51663;52.310;17.016;2023-04-15T01:24:11;28.30;31.30
65072;DHT22;51663;52.310;17.016;2023-04-15T01:27:23;28.30;31.70
65072;DHT22;51663;52.310;17.016;2023-04-15T01:31:00;28.00;31.50
65072;DHT22;51663;52.310;17.016;2023-04-15T01:34:57;28.60;31.20
65072;DHT22;51663;52.310;17.016;2023-04-15T01:38:53;28.10;31.60
65072;DHT22;51663;52.310;17.016;2023-04-15T01:42:17;28.00;31.90
65072;DHT22;51663;52.310;17.016;2023-04-15T01:49:33;28.80;30.80
65072;DHT22;51663;52.310;17.016;2023-04-15T02:01:16;28.50;30.90
65072;DHT22;51663;52.310;17.016;2023-04-15T02:04:37;28.10;31.50
65072;DHT22;51663;52.310;17.016;2023-04-15T02:07:56;27.60;32.60
65072;DHT22;51663;52.310;17.016;2023-04-15T02:11:35;28.10;31.70
65072;DHT22;51663;52.310;17.016;2023-04-15T02:19:20;28.40;31.60
65072;DHT22;51663;52.310;17.016;2023-04-15T02:22:58;28.70;31.00
65072;DHT22;51663;52.310;17.016;2023-04-15T02:26:24;28.60;31.20
65072;DHT22;51663;52.310;17.016;2023-04-15T02:29:26;27.90;32.20
65072;DHT22;51663;52.310;17.016;2023-04-15T02:32:48;28.10;31.90
65072;DHT22;51663;52.310;17.016;2023-04-15T02:36:23;28.20;32.00
65072;DHT22;51663;52.310;17.016;2023-04-15T02:39:25;28.30;31.80
65072;DHT22;51663;52.310;17.016;2023-04-15T02:42:41;28.40;32.00
65072;DHT22;51663;52.310;17.016;2023-04-15T02:46:02;28.30;32.70
65072;DHT22;51663;52.310;17.016;2023-04-15T02:49:04;27.60;33.10
65072;DHT22;51663;52.310;17.016;2023-04-15T02:52:25;27.70;33.50
65072;DHT22;51663;52.310;17.016;2023-04-15T02:55:47;27.80;33.50
65072;DHT22;51663;52.310;17.016;2023-04-15T02:58:51;27.70;33.50
65072;DHT22;51663;52.310;17.016;2023-04-15T03:02:19;27.60;34.10
65072;DHT22;51663;52.310;17.016;2023-04-15T03:06:04;27.50;33.90
65072;DHT22;51663;52.310;17.016;2023-04-15T03:09:31;27.40;34.60
65072;DHT22;51663;52.310;17.016;2023-04-15T03:13:10;27.30;34.40
65072;DHT22;51663;52.310;17.016;2023-04-15T03:16:12;26.90;35.20
65072;DHT22;51663;52.310;17.016;2023-04-15T03:27:26;26.80;36.00
65072;DHT22;51663;52.310;17.016;2023-04-15T03:34:42;27.20;34.50
65072;DHT22;51663;52.310;17.016;2023-04-15T03:38:17;27.00;35.00
65072;DHT22;51663;52.310;17.016;2023-04-15T03:42:15;27.70;34.30
65072;DHT22;51663;52.310;17.016;2023-04-15T03:46:06;27.80;34.70
65072;DHT22;51663;52.310;17.016;2023-04-15T03:49:08;28.00;34.00
65072;DHT22;51663;52.310;17.016;2023-04-15T03:56:28;28.40;33.10
65072;DHT22;51663;52.310;17.016;2023-04-15T03:59:52;27.90;34.50
65072;DHT22;51663;52.310;17.016;2023-04-15T04:03:09;27.90;34.30
65072;DHT22;51663;52.310;17.016;2023-04-15T04:06:43;27.40;34.90
65072;DHT22;51663;52.310;17.016;2023-04-15T04:10:19;27.30;35.00
65072;DHT22;51663;52.310;17.016;2023-04-15T04:13:37;27.90;34.70
65072;DHT22;51663;52.310;17.016;2023-04-15T04:18:06;27.30;35.00
65072;DHT22;51663;52.310;17.016;2023-04-15T04:22:06;27.10;35.60
65072;DHT22;51663;52.310;17.016;2023-04-15T04:25:17;26.70;36.00
65072;DHT22;51663;52.310;17.016;2023-04-15T04:28:27;26.90;36.40
65072;DHT22;51663;52.310;17.016;2023-04-15T04:32:13;27.10;36.40
65072;DHT22;51663;52.310;17.016;2023-04-15T04:35:18;27.20;36.00
65072;DHT22;51663;52.310;17.016;2023-04-15T04:38:48;26.90;36.30
65072;DHT22;51663;52.310;17.016;2023-04-15T04:41:51;26.70;36.50
65072;DHT22;51663;52.310;17.016;2023-04-15T04:49:21;27.10;36.20
65072;DHT22;51663;52.310;17.016;2023-04-15T04:52:34;26.80;36.60
65072;DHT22;51663;52.310;17.016;2023-04-15T04:56:18;26.90;36.00
65072;DHT22;51663;52.310;17.016;2023-04-15T04:59:47;27.10;35.90
65072;DHT22;51663;52.310;17.016;2023-04-15T05:02:58;27.00;36.00
65072;DHT22;51663;52.310;17.016;2023-04-15T05:06:08;26.90;36.60
65072;DHT22;51663;52.310;17.016;2023-04-15T05:09:14;26.50;37.00
65072;DHT22;51663;52.310;17.016;2023-04-15T05:12:42;26.70;36.70
65072;DHT22;51663;52.310;17.016;2023-04-15T05:16:28;26.60;36.80
65072;DHT22;51663;52.310;17.016;2023-04-15T05:23:00;26.40;37.30
65072;DHT22;51663;52.310;17.016;2023-04-15T05:26:18;26.70;37.30
65072;DHT22;51663;52.310;17.016;2023-04-15T05:29:55;27.10;36.90
65072;DHT22;51663;52.310;17.016;2023-04-15T05:33:19;26.70;37.60
65072;DHT22;51663;52.310;17.016;2023-04-15T05:36:47;27.30;36.50
65072;DHT22;51663;52.310;17.016;2023-04-15T05:40:04;26.90;36.80
65072;DHT22;51663;52.310;17.016;2023-04-15T05:43:55;26.80;37.30
65072;DHT22;51663;52.310;17.016;2023-04-15T05:47:26;27.40;36.50
65072;DHT22;51663;52.310;17.016;2023-04-15T05:50:34;27.00;36.90
65072;DHT22;51663;52.310;17.016;2023-04-15T05:58:43;27.00;37.20
65072;DHT22;51663;52.310;17.016;2023-04-15T06:02:36;28.00;35.60
65072;DHT22;51663;52.310;17.016;2023-04-15T06:05:47;28.40;34.80
65072;DHT22;51663;52.310;17.016;2023-04-15T06:09:47;27.60;35.80
65072;DHT22;51663;52.310;17.016;2023-04-15T06:12:51;27.70;36.30
65072;DHT22;51663;52.310;17.016;2023-04-15T06:15:57;27.60;36.20
65072;DHT22;51663;52.310;17.016;2023-04-15T06:19:30;27.90;35.70
65072;DHT22;51663;52.310;17.016;2023-04-15T06:22:36;27.70;36.00
65072;DHT22;51663;52.310;17.016;2023-04-15T06:25:42;28.10;35.90
65072;DHT22;51663;52.310;17.016;2023-04-15T06:28:58;27.90;35.70
65072;DHT22;51663;52.310;17.016;2023-04-15T06:32:31;27.80;36.20
65072;DHT22;51663;52.310;17.016;2023-04-15T06:35:38;27.70;36.50
65072;DHT22;51663;52.310;17.016;2023-04-15T06:38:56;27.40;37.70
65072;DHT22;51663;52.310;17.016;2023-04-15T06:42:10;27.90;36.30
65072;DHT22;51663;52.310;17.016;2023-04-15T06:45:15;28.10;36.20
65072;DHT22;51663;52.310;17.016;2023-04-15T06:48:44;28.20;36.20
65072;DHT22;51663;52.310;17.016;2023-04-15T06:51:55;28.40;36.00
65072;DHT22;51663;52.310;17.016;2023-04-15T06:54:57;28.60;35.60
65072;DHT22;51663;52.310;17.016;2023-04-15T06:58:00;28.80;35.00
65072;DHT22;51663;52.310;17.016;2023-04-15T07:01:26;29.00;35.20
65072;DHT22;51663;52.310;17.016;2023-04-15T07:04:37;28.40;35.40
65072;DHT22;51663;52.310;17.016;2023-04-15T07:07:42;28.40;35.60
65072;DHT22;51663;52.310;17.016;2023-04-15T07:10:47;28.70;35.30
65072;DHT22;51663;52.310;17.016;2023-04-15T07:14:15;28.50;35.20
65072;DHT22;51663;52.310;17.016;2023-04-15T07:17:53;28.30;36.10
65072;DHT22;51663;52.310;17.016;2023-04-15T07:29:37;29.00;35.30
65072;DHT22;51663;52.310;17.016;2023-04-15T07:34:03;29.10;35.10
65072;DHT22;51663;52.310;17.016;2023-04-15T07:37:35;29.40;34.60
65072;DHT22;51663;52.310;17.016;2023-04-15T07:41:24;29.40;35.10
65072;DHT22;51663;52.310;17.016;2023-04-15T07:45:35;29.00;35.40
65072;DHT22;51663;52.310;17.016;2023-04-15T07:48:37;29.20;35.40
65072;DHT22;51663;52.310;17.016;2023-04-15T07:52:04;29.00;35.60
65072;DHT22;51663;52.310;17.016;2023-04-15T07:55:08;29.50;34.90
65072;DHT22;51663;52.310;17.016;2023-04-15T07:58:19;29.10;35.20
65072;DHT22;51663;52.310;17.016;2023-04-15T08:02:01;29.10;35.20
65072;DHT22;51663;52.310;17.016;2023-04-15T08:05:04;29.30;35.20
65072;DHT22;51663;52.310;17.016;2023-04-15T08:08:31;29.50;34.90
65072;DHT22;51663;52.310;17.016;2023-04-15T08:12:09;29.50;35.00
65072;DHT22;51663;52.310;17.016;2023-04-15T08:15:14;29.20;35.30
65072;DHT22;51663;52.310;17.016;2023-04-15T08:18:22;29.60;34.80
65072;DHT22;51663;52.310;17.016;2023-04-15T08:21:53;29.40;35.40
65072;DHT22;51663;52.310;17.016;2023-04-15T08:24:56;30.20;34.30
65072;DHT22;51663;52.310;17.016;2023-04-15T08:28:13;30.40;33.90
65072;DHT22;51663;52.310;17.016;2023-04-15T08:31:31;30.20;33.70
65072;DHT22;51663;52.310;17.016;2023-04-15T08:34:40;29.80;34.50
65072;DHT22;51663;52.310;17.016;2023-04-15T08:37:43;29.20;35.20
65072;DHT22;51663;52.310;17.016;2023-04-15T08:40:47;29.40;35.20
65072;DHT22;51663;52.310;17.016;2023-04-15T08:47:41;29.60;34.60
65072;DHT22;51663;52.310;17.016;2023-04-15T08:51:46;30.30;34.40
65072;DHT22;51663;52.310;17.016;2023-04-15T09:02:36;30.00;35.10
65072;DHT22;51663;52.310;17.016;2023-04-15T09:05:44;29.80;35.00
65072;DHT22;51663;52.310;17.016;2023-04-15T09:08:46;30.10;34.80
65072;DHT22;51663;52.310;17.016;2023-04-15T09:12:13;30.00;34.70
65072;DHT22;51663;52.310;17.016;2023-04-15T09:15:48;29.60;35.20
65072;DHT22;51663;52.310;17.016;2023-04-15T09:19:25;29.80;35.60
65072;DHT22;51663;52.310;17.016;2023-04-15T09:22:41;30.20;35.10
65072;DHT22;51663;52.310;17.016;2023-04-15T09:26:03;30.70;33.10
65072;DHT22;51663;52.310;17.016;2023-04-15T09:29:23;30.90;30.80
65072;DHT22;51663;52.310;17.016;2023-04-15T09:32:27;31.10;30.60
65072;DHT22;51663;52.310;17.016;2023-04-15T09:35:33;31.10;30.40
65072;DHT22;51663;52.310;17.016;2023-04-15T09:38:56;31.10;30.20
65072;DHT22;51663;52.310;17.016;2023-04-15T09:42:10;31.50;30.00
65072;DHT22;51663;52.310;17.016;2023-04-15T09:45:16;31.70;29.50
65072;DHT22;51663;52.310;17.016;2023-04-15T09:48:23;31.90;29.20
65072;DHT22;51663;52.310;17.016;2023-04-15T09:51:34;32.10;29.30
65072;DHT22;51663;52.310;17.016;2023-04-15T09:54:40;32.30;29.10
65072;DHT22;51663;52.310;17.016;2023-04-15T09:57:49;32.40;28.70
65072;DHT22;51663;52.310;17.016;2023-04-15T10:01:06;32.60;28.70
65072;DHT22;51663;52.310;17.016;2023-04-15T10:04:32;32.70;28.70
65072;DHT22;51663;52.310;17.016;2023-04-15T10:07:45;32.90;28.90
65072;DHT22;51663;52.310;17.016;2023-04-15T10:11:01;33.00;28.60
65072;DHT22;51663;52.310;17.016;2023-04-15T10:14:22;33.10;28.40
65072;DHT22;51663;52.310;17.016;2023-04-15T10:18:58;33.10;28.20
65072;DHT22;51663;52.310;17.016;2023-04-15T10:22:53;33.10;28.40
65072;DHT22;51663;52.310;17.016;2023-04-15T10:27:09;33.30;28.30
65072;DHT22;51663;52.310;17.016;2023-04-15T10:34:32;33.50;28.60
65072;DHT22;51663;52.310;17.016;2023-04-15T10:37:44;33.50;28.80
65072;DHT22;51663;52.310;17.016;2023-04-15T10:40:49;33.50;28.60
65072;DHT22;51663;52.310;17.016;2023-04-15T10:44:03;33.50;28.60
65072;DHT22;51663;52.310;17.016;2023-04-15T10:47:20;33.50;28.60
65072;DHT22;51663;52.310;17.016;2023-04-15T10:50:29;33.60;28.60
65072;DHT22;51663;52.310;17.016;2023-04-15T10:53:55;33.60;28.80
65072;DHT22;51663;52.310;17.016;2023-04-15T10:57:33;33.70;28.60
65072;DHT22;51663;52.310;17.016;2023-04-15T11:00:52;33.70;28.20
65072;DHT22;51663;52.310;17.016;2023-04-15T11:04:58;33.70;28.60
65072;DHT22;51663;52.310;17.016;2023-04-15T11:08:01;33.70;29.00
65072;DHT22;51663;52.310;17.016;2023-04-15T11:11:06;33.70;28.60
65072;DHT22;51663;52.310;17.016;2023-04-15T11:14:14;33.70;27.90
65072;DHT22;51663;52.310;17.016;2023-04-15T11:17:28;33.50;28.20
65072;DHT22;51663;52.310;17.016;2023-04-15T11:20:32;33.50;28.60
65072;DHT22;51663;52.310;17.016;2023-04-15T11:23:42;33.30;28.00
65072;DHT22;51663;52.310;17.016;2023-04-15T11:26:49;33.10;28.50
65072;DHT22;51663;52.310;17.016;2023-04-15T11:30:00;32.90;28.90
65072;DHT22;51663;52.310;17.016;2023-04-15T11:33:05;33.10;29.10
65072;DHT22;51663;52.310;17.016;2023-04-15T11:36:09;33.10;29.10
65072;DHT22;51663;52.310;17.016;2023-04-15T11:39:27;33.00;29.10
65072;DHT22;51663;52.310;17.016;2023-04-15T11:42:45;33.10;29.40
65072;DHT22;51663;52.310;17.016;2023-04-15T11:46:15;33.20;28.80
65072;DHT22;51663;52.310;17.016;2023-04-15T11:54:18;33.30;29.20
65072;DHT22;51663;52.310;17.016;2023-04-15T11:57:30;33.30;28.70
65072;DHT22;51663;52.310;17.016;2023-04-15T12:00:36;33.40;29.30
65072;DHT22;51663;52.310;17.016;2023-04-15T12:04:16;33.40;28.90
65072;DHT22;51663;52.310;17.016;2023-04-15T12:07:59;33.40;29.30
65072;DHT22;51663;52.310;17.016;2023-04-15T12:19:06;33.30;29.50
65072;DHT22;51663;52.310;17.016;2023-04-15T12:22:16;33.20;29.20
65072;DHT22;51663;52.310;17.016;2023-04-15T12:25:18;33.10;29.00
65072;DHT22;51663;52.310;17.016;2023-04-15T12:28:21;33.20;29.30
65072;DHT22;51663;52.310;17.016;2023-04-15T12:31:24;33.20;29.40
65072;DHT22;51663;52.310;17.016;2023-04-15T12:34:29;33.20;30.00
65072;DHT22;51663;52.310;17.016;2023-04-15T12:37:34;33.30;29.80
65072;DHT22;51663;52.310;17.016;2023-04-15T12:40:46;33.30;29.00
65072;DHT22;51663;52.310;17.016;2023-04-15T12:44:41;33.30;29.20
65072;DHT22;51663;52.310;17.016;2023-04-15T12:48:04;33.10;29.00
65072;DHT22;51663;52.310;17.016;2023-04-15T12:51:40;32.90;28.90
65072;DHT22;51663;52.310;17.016;2023-04-15T12:54:45;33.00;29.10
65072;DHT22;51663;52.310;17.016;2023-04-15T12:58:35;32.80;29.50
65072;DHT22;51663;52.310;17.016;2023-04-15T13:02:18;32.80;29.10
65072;DHT22;51663;52.310;17.016;2023-04-15T13:05:57;32.90;29.20
65072;DHT22;51663;52.310;17.016;2023-04-15T13:09:10;32.70;28.80
65072;DHT22;51663;52.310;17.016;2023-04-15T13:12:12;32.80;29.10
65072;DHT22;51663;52.310;17.016;2023-04-15T13:15:21;32.80;29.20
65072;DHT22;51663;52.310;17.016;2023-04-15T13:18:34;32.70;28.70
65072;DHT22;51663;52.310;17.016;2023-04-15T13:22:28;32.80;29.20
65072;DHT22;51663;52.310;17.016;2023-04-15T13:26:14;32.80;29.10
65072;DHT22;51663;52.310;17.016;2023-04-15T13:29:50;32.80;29.10
65072;DHT22;51663;52.310;17.016;2023-04-15T13:32:53;33.00;29.10
65072;DHT22;51663;52.310;17.016;2023-04-15T13:35:55;33.00;29.00
65072;DHT22;51663;52.310;17.016;2023-04-15T13:38:58;33.10;28.80
65072;DHT22;51663;52.310;17.016;2023-04-15T13:42:01;33.10;28.90
65072;DHT22;51663;52.310;17.016;2023-04-15T13:45:05;32.90;29.10
65072;DHT22;51663;52.310;17.016;2023-04-15T13:48:10;33.00;29.50
65072;DHT22;51663;52.310;17.016;2023-04-15T13:51:13;33.00;29.20
65072;DHT22;51663;52.310;17.016;2023-04-15T13:54:18;33.00;29.60
65072;DHT22;51663;52.310;17.016;2023-04-15T13:57:24;33.10;29.40
65072;DHT22;51663;52.310;17.016;2023-04-15T14:00:36;33.10;29.00
65072;DHT22;51663;52.310;17.016;2023-04-15T14:03:43;33.10;29.00
65072;DHT22;51663;52.310;17.016;2023-04-15T14:06:48;33.20;28.80
65072;DHT22;51663;52.310;17.016;2023-04-15T14:10:12;33.10;29.20
65072;DHT22;51663;52.310;17.016;2023-04-15T14:14:02;33.40;29.20
65072;DHT22;51663;52.310;17.016;2023-04-15T14:17:52;33.50;29.30
65072;DHT22;51663;52.310;17.016;2023-04-15T14:21:24;33.50;29.20
65072;DHT22;51663;52.310;17.016;2023-04-15T14:25:28;33.50;29.40
65072;DHT22;51663;52.310;17.016;2023-04-15T14:32:34;33.60;28.90
65072;DHT22;51663;52.310;17.016;2023-04-15T14:35:36;33.60;29.20
65072;DHT22;51663;52.310;17.016;2023-04-15T14:38:39;33.50;28.90
65072;DHT22;51663;52.310;17.016;2023-04-15T14:41:42;33.40;29.10
65072;DHT22;51663;52.310;17.016;2023-04-15T14:44:44;33.40;29.00
65072;DHT22;51663;52.310;17.016;2023-04-15T14:47:47;33.00;29.20
65072;DHT22;51663;52.310;17.016;2023-04-15T15:00:04;31.80;31.30
65072;DHT22;51663;52.310;17.016;2023-04-15T15:09:24;31.50;31.20
65072;DHT22;51663;52.310;17.016;2023-04-15T15:12:35;31.00;31.00
65072;DHT22;51663;52.310;17.016;2023-04-15T15:15:43;30.50;31.90
65072;DHT22;51663;52.310;17.016;2023-04-15T15:24:08;31.40;32.00
65072;DHT22;51663;52.310;17.016;2023-04-15T15:28:01;31.00;31.80
65072;DHT22;51663;52.310;17.016;2023-04-15T15:35:56;28.90;35.80
65072;DHT22;51663;52.310;17.016;2023-04-15T15:39:23;28.70;36.30
65072;DHT22;51663;52.310;17.016;2023-04-15T15:43:54;29.10;35.50
65072;DHT22;51663;52.310;17.016;2023-04-15T15:51:49;28.70;35.60
65072;DHT22;51663;52.310;17.016;2023-04-15T15:54:51;29.40;35.40
65072;DHT22;51663;52.310;17.016;2023-04-15T15:57:53;30.00;34.40
65072;DHT22;51663;52.310;17.016;2023-04-15T16:00:56;30.60;33.80
65072;DHT22;51663;52.310;17.016;2023-04-15T16:04:01;31.00;31.50
65072;DHT22;51663;52.310;17.016;2023-04-15T16:07:03;31.30;32.30
65072;DHT22;51663;52.310;17.016;2023-04-15T16:10:06;31.60;32.70
65072;DHT22;51663;52.310;17.016;2023-04-15T16:13:09;31.90;32.00
65072;DHT22;51663;52.310;17.016;2023-04-15T16:16:12;32.00;31.00
65072;DHT22;51663;52.310;17.016;2023-04-15T16:19:14;32.00;31.00
65072;DHT22;51663;52.310;17.016;2023-04-15T16:22:17;32.10;30.30
65072;DHT22;51663;52.310;17.016;2023-04-15T16:25:20;32.20;30.70
65072;DHT22;51663;52.310;17.016;2023-04-15T16:28:22;31.90;31.00
65072;DHT22;51663;52.310;17.016;2023-04-15T16:31:28;31.90;30.60
65072;DHT22;51663;52.310;17.016;2023-04-15T16:34:31;31.10;31.00
65072;DHT22;51663;52.310;17.016;2023-04-15T16:37:33;31.60;31.60
65072;DHT22;51663;52.310;17.016;2023-04-15T16:40:37;31.60;31.20
65072;DHT22;51663;52.310;17.016;2023-04-15T16:43:40;31.50;31.40
65072;DHT22;51663;52.310;17.016;2023-04-15T16:46:42;31.30;31.00
65072;DHT22;51663;52.310;17.016;2023-04-15T16:49:44;30.70;32.60
65072;DHT22;51663;52.310;17.016;2023-04-15T16:52:47;30.40;33.10
65072;DHT22;51663;52.310;17.016;2023-04-15T16:55:49;30.80;32.10
65072;DHT22;51663;52.310;17.016;2023-04-15T16:58:51;31.10;32.50
65072;DHT22;51663;52.310;17.016;2023-04-15T17:01:54;31.10;32.20
65072;DHT22;51663;52.310;17.016;2023-04-15T17:04:56;31.00;31.90
65072;DHT22;51663;52.310;17.016;2023-04-15T17:07:59;31.00;32.70
65072;DHT22;51663;52.310;17.016;2023-04-15T17:11:01;31.00;32.10
65072;DHT22;51663;52.310;17.016;2023-04-15T17:14:03;31.00;31.30
65072;DHT22;51663;52.310;17.016;2023-04-15T17:17:09;30.70;32.90
65072;DHT22;51663;52.310;17.016;2023-04-15T17:20:20;30.20;32.80
65072;DHT22;51663;52.310;17.016;2023-04-15T17:23:27;30.10;33.60
65072;DHT22;51663;52.310;17.016;2023-04-15T17:26:32;30.40;32.90
65072;DHT22;51663;52.310;17.016;2023-04-15T17:29:57;30.70;32.80
65072;DHT22;51663;52.310;17.016;2023-04-15T17:33:15;30.10;32.70
65072;DHT22;51663;52.310;17.016;2023-04-15T17:36:43;30.10;33.70
65072;DHT22;51663;52.310;17.016;2023-04-15T17:40:06;30.60;32.80
65072;DHT22;51663;52.310;17.016;2023-04-15T17:43:16;29.70;33.70
65072;DHT22;51663;52.310;17.016;2023-04-15T17:50:22;29.70;34.40
65072;DHT22;51663;52.310;17.016;2023-04-15T17:53:47;29.30;35.10
65072;DHT22;51663;52.310;17.016;2023-04-15T17:57:29;29.30;35.20
65072;DHT22;51663;52.310;17.016;2023-04-15T18:00:53;28.70;35.70
65072;DHT22;51663;52.310;17.016;2023-04-15T18:08:59;28.70;35.50
65072;DHT22;51663;52.310;17.016;2023-04-15T18:12:58;29.20;35.50
65072;DHT22;51663;52.310;17.016;2023-04-15T18:21:54;27.90;36.90
65072;DHT22;51663;52.310;17.016;2023-04-15T18:26:01;27.60;37.70
65072;DHT22;51663;52.310;17.016;2023-04-15T18:30:18;28.20;36.50
65072;DHT22;51663;52.310;17.016;2023-04-15T18:33:48;28.20;36.60
65072;DHT22;51663;52.310;17.016;2023-04-15T18:37:19;28.30;36.80
65072;DHT22;51663;52.310;17.016;2023-04-15T18:40:55;28.40;36.20
65072;DHT22;51663;52.310;17.016;2023-04-15T18:44:28;29.30;35.20
65072;DHT22;51663;52.310;17.016;2023-04-15T18:47:37;29.20;34.40
65072;DHT22;51663;52.310;17.016;2023-04-15T18:51:25;29.80;33.90
65072;DHT22;51663;52.310;17.016;2023-04-15T18:54:30;30.60;32.40
65072;DHT22;51663;52.310;17.016;2023-04-15T18:57:40;31.00;31.70
65072;DHT22;51663;52.310;17.016;2023-04-15T19:00:54;31.20;31.00
65072;DHT22;51663;52.310;17.016;2023-04-15T19:04:09;31.50;30.60
65072;DHT22;51663;52.310;17.016;2023-04-15T19:07:37;31.70;30.30
65072;DHT22;51663;52.310;17.016;2023-04-15T19:10:57;32.00;30.00
65072;DHT22;51663;52.310;17.016;2023-04-15T19:14:06;32.00;30.00
65072;DHT22;51663;52.310;17.016;2023-04-15T19:17:17;32.10;30.70
65072;DHT22;51663;52.310;17.016;2023-04-15T19:20:23;32.00;30.20
65072;DHT22;51663;52.310;17.016;2023-04-15T19:24:06;31.80;30.50
65072;DHT22;51663;52.310;17.016;2023-04-15T19:27:11;31.90;30.70
65072;DHT22;51663;52.310;17.016;2023-04-15T19:30:13;31.90;30.60
65072;DHT22;51663;52.310;17.016;2023-04-15T19:33:15;32.00;30.40
65072;DHT22;51663;52.310;17.016;2023-04-15T19:36:20;31.90;30.30
65072;DHT22;51663;52.310;17.016;2023-04-15T19:39:23;31.90;30.50
65072;DHT22;51663;52.310;17.016;2023-04-15T19:42:26;31.90;30.40
65072;DHT22;51663;52.310;17.016;2023-04-15T19:45:30;31.90;30.40
65072;DHT22;51663;52.310;17.016;2023-04-15T19:48:45;32.00;30.20
65072;DHT22;51663;52.310;17.016;2023-04-15T19:51:52;32.00;30.20
65072;DHT22;51663;52.310;17.016;2023-04-15T19:54:58;32.00;30.20
65072;DHT22;51663;52.310;17.016;2023-04-15T19:58:26;32.00;30.30
65072;DHT22;51663;52.310;17.016;2023-04-15T20:01:31;32.00;30.20
65072;DHT22;51663;52.310;17.016;2023-04-15T20:04:33;32.00;30.00
65072;DHT22;51663;52.310;17.016;2023-04-15T20:07:36;32.10;30.00
65072;DHT22;51663;52.310;17.016;2023-04-15T20:10:38;32.20;30.00
65072;DHT22;51663;52.310;17.016;2023-04-15T20:13:40;32.20;30.00
65072;DHT22;51663;52.310;17.016;2023-04-15T20:16:42;32.20;29.90
65072;DHT22;51663;52.310;17.016;2023-04-15T20:19:45;32.20;29.90
65072;DHT22;51663;52.310;17.016;2023-04-15T20:22:47;32.30;29.70
65072;DHT22;51663;52.310;17.016;2023-04-15T20:25:50;32.30;29.70
65072;DHT22;51663;52.310;17.016;2023-04-15T20:28:53;32.30;29.70
65072;DHT22;51663;52.310;17.016;2023-04-15T20:32:02;32.30;29.60
65072;DHT22;51663;52.310;17.016;2023-04-15T20:35:12;32.30;29.60
65072;DHT22;51663;52.310;17.016;2023-04-15T20:38:25;32.30;29.50
65072;DHT22;51663;52.310;17.016;2023-04-15T20:41:35;32.30;29.40
65072;DHT22;51663;52.310;17.016;2023-04-15T20:44:38;32.30;29.30
65072;DHT22;51663;52.310;17.016;2023-04-15T20:47:40;32.30;29.60
65072;DHT22;51663;52.310;17.016;2023-04-15T20:50:42;32.30;29.70
65072;DHT22;51663;52.310;17.016;2023-04-15T20:53:50;32.10;29.70
65072;DHT22;51663;52.310;17.016;2023-04-15T20:57:05;32.10;29.80
65072;DHT22;51663;52.310;17.016;2023-04-15T21:00:13;32.10;29.80
65072;DHT22;51663;52.310;17.016;2023-04-15T21:03:16;32.10;29.60
65072;DHT22;51663;52.310;17.016;2023-04-15T21:06:18;32.30;29.60
65072;DHT22;51663;52.310;17.016;2023-04-15T21:09:21;32.30;29.50
65072;DHT22;51663;52.310;17.016;2023-04-15T21:12:28;32.30;29.50
65072;DHT22;51663;52.310;17.016;2023-04-15T21:15:31;32.30;29.60
65072;DHT22;51663;52.310;17.016;2023-04-15T21:18:36;32.10;29.70
65072;DHT22;51663;52.310;17.016;2023-04-15T21:21:42;32.10;29.70
65072;DHT22;51663;52.310;17.016;2023-04-15T21:24:44;32.10;29.60
65072;DHT22;51663;52.310;17.016;2023-04-15T21:27:48;32.20;29.60
65072;DHT22;51663;52.310;17.016;2023-04-15T21:30:51;32.20;29.50
65072;DHT22;51663;52.310;17.016;2023-04-15T21:33:54;32.20;29.50
65072;DHT22;51663;52.310;17.016;2023-04-15T21:36:56;32.20;29.50
65072;DHT22;51663;52.310;17.016;2023-04-15T21:39:58;32.20;29.50
65072;DHT22;51663;52.310;17.016;2023-04-15T21:43:00;32.20;29.60
65072;DHT22;51663;52.310;17.016;2023-04-15T21:46:03;32.20;29.70
65072;DHT22;51663;52.310;17.016;2023-04-15T21:49:25;32.20;29.70
65072;DHT22;51663;52.310;17.016;2023-04-15T21:52:28;32.30;29.70
65072;DHT22;51663;52.310;17.016;2023-04-15T21:55:30;32.30;29.70
65072;DHT22;51663;52.310;17.016;2023-04-15T21:58:32;32.30;29.50
65072;DHT22;51663;52.310;17.016;2023-04-15T22:01:34;32.30;29.50
65072;DHT22;51663;52.310;17.016;2023-04-15T22:04:36;32.20;29.40
65072;DHT22;51663;52.310;17.016;2023-04-15T22:07:39;32.20;29.40
65072;DHT22;51663;52.310;17.016;2023-04-15T22:10:42;32.20;29.40
65072;DHT22;51663;52.310;17.016;2023-04-15T22:13:47;32.20;29.30
65072;DHT22;51663;52.310;17.016;2023-04-15T22:16:50;32.20;29.30
65072;DHT22;51663;52.310;17.016;2023-04-15T22:19:52;32.30;29.30
65072;DHT22;51663;52.310;17.016;2023-04-15T22:22:59;32.30;29.30
65072;DHT22;51663;52.310;17.016;2023-04-15T22:31:37;32.30;29.30
65072;DHT22;51663;52.310;17.016;2023-04-15T22:36:03;32.20;29.80
65072;DHT22;51663;52.310;17.016;2023-04-15T22:39:43;32.20;29.30
65072;DHT22;51663;52.310;17.016;2023-04-15T22:48:06;32.20;29.20
65072;DHT22;51663;52.310;17.016;2023-04-15T22:51:47;32.20;29.20
65072;DHT22;51663;52.310;17.016;2023-04-15T22:56:27;32.20;29.40
65072;DHT22;51663;52.310;17.016;2023-04-15T23:00:25;32.10;29.40
65072;DHT22;51663;52.310;17.016;2023-04-15T23:08:10;32.10;29.90